Aviation Digital Data Service (ADDS)

Output produced by METARs form (2154 UTC 08 August 2020)
found at http://www.aviationweather.gov/metar/data/
 
METAR text: ETNL 082120Z 01004KT 9999 FEW320 22/16 Q1020 BLU+
Conditions at: ETNL (LAAGE , DE) observed 2120 UTC 08 August 2020
Temperature: 22.0°C (72°F)
Dewpoint: 16.0°C (61°F) [RH = 69%]
Pressure (altimeter): 30.12 inches Hg (1020.0 mb)
Winds: from the N (10 degrees) at 5 MPH (4 knots; 2.1 m/s)
Visibility: 6 or more miles (10+ km)
Ceiling: at least 12,000 feet AGL
Clouds: few clouds at 32000 feet AGL
Weather: no significant weather observed at this time

METAR text: ETNL 082020Z 03005KT 9999 FEW300 23/16 Q1020 BLU+
Conditions at: ETNL (LAAGE , DE) observed 2020 UTC 08 August 2020
Temperature: 23.0°C (73°F)
Dewpoint: 16.0°C (61°F) [RH = 65%]
Pressure (altimeter): 30.12 inches Hg (1020.0 mb)
Winds: from the NNE (30 degrees) at 6 MPH (5 knots; 2.6 m/s)
Visibility: 6 or more miles (10+ km)
Ceiling: at least 12,000 feet AGL
Clouds: few clouds at 30000 feet AGL
Weather: no significant weather observed at this time

METAR text: ETNL 081920Z 02005KT 9999 FEW320 SCT360 24/16 Q1020 BLU+
Conditions at: ETNL (LAAGE , DE) observed 1920 UTC 08 August 2020
Temperature: 24.0°C (75°F)
Dewpoint: 16.0°C (61°F) [RH = 61%]
Pressure (altimeter): 30.12 inches Hg (1020.0 mb)
Winds: from the NNE (20 degrees) at 6 MPH (5 knots; 2.6 m/s)
Visibility: 6 or more miles (10+ km)
Ceiling: at least 12,000 feet AGL
Clouds: few clouds at 32000 feet AGL
scattered clouds at 36000 feet AGL
Weather: no significant weather observed at this time

METAR text: ETNL 081820Z 03004KT 9999 FEW320 26/17 Q1020 BLU+
Conditions at: ETNL (LAAGE , DE) observed 1820 UTC 08 August 2020
Temperature: 26.0°C (79°F)
Dewpoint: 17.0°C (63°F) [RH = 58%]
Pressure (altimeter): 30.12 inches Hg (1020.0 mb)
Winds: from the NNE (30 degrees) at 5 MPH (4 knots; 2.1 m/s)
Visibility: 6 or more miles (10+ km)
Ceiling: at least 12,000 feet AGL
Clouds: few clouds at 32000 feet AGL
Weather: no significant weather observed at this time

METAR text: ETNL 081720Z 03008KT 9999 FEW360 28/16 Q1020 BLU+
Conditions at: ETNL (LAAGE , DE) observed 1720 UTC 08 August 2020
Temperature: 28.0°C (82°F)
Dewpoint: 16.0°C (61°F) [RH = 48%]
Pressure (altimeter): 30.12 inches Hg (1020.0 mb)
Winds: from the NNE (30 degrees) at 9 MPH (8 knots; 4.1 m/s)
Visibility: 6 or more miles (10+ km)
Ceiling: at least 12,000 feet AGL
Clouds: few clouds at 36000 feet AGL
Weather: no significant weather observed at this time

METAR text: ETNL 081620Z 02009KT 9999 FEW250 29/18 Q1019 BLU+
Conditions at: ETNL (LAAGE , DE) observed 1620 UTC 08 August 2020
Temperature: 29.0°C (84°F)
Dewpoint: 18.0°C (64°F) [RH = 52%]
Pressure (altimeter): 30.09 inches Hg (1019.0 mb)
Winds: from the NNE (20 degrees) at 10 MPH (9 knots; 4.6 m/s)
Visibility: 6 or more miles (10+ km)
Ceiling: at least 12,000 feet AGL
Clouds: few clouds at 25000 feet AGL
Weather: no significant weather observed at this time

METAR text: ETNL 081520Z 02010KT 9999 FEW060 BKN280 29/17 Q1020 BLU+
Conditions at: ETNL (LAAGE , DE) observed 1520 UTC 08 August 2020
Temperature: 29.0°C (84°F)
Dewpoint: 17.0°C (63°F) [RH = 48%]
Pressure (altimeter): 30.12 inches Hg (1020.0 mb)
Winds: from the NNE (20 degrees) at 12 MPH (10 knots; 5.1 m/s)
Visibility: 6 or more miles (10+ km)
Ceiling: 28000 feet AGL
Clouds: few clouds at 6000 feet AGL
broken clouds at 28000 feet AGL
Weather: no significant weather observed at this time

METAR text: ETNL 081420Z 34010KT 9999 FEW060 31/18 Q1020 BLU+
Conditions at: ETNL (LAAGE , DE) observed 1420 UTC 08 August 2020
Temperature: 31.0°C (88°F)
Dewpoint: 18.0°C (64°F) [RH = 46%]
Pressure (altimeter): 30.12 inches Hg (1020.0 mb)
Winds: from the NNW (340 degrees) at 12 MPH (10 knots; 5.1 m/s)
Visibility: 6 or more miles (10+ km)
Ceiling: at least 12,000 feet AGL
Clouds: few clouds at 6000 feet AGL
Weather: no significant weather observed at this time

METAR text: ETNL 081320Z 35009KT 9999 FEW060 31/18 Q1020 BLU+
Conditions at: ETNL (LAAGE , DE) observed 1320 UTC 08 August 2020
Temperature: 31.0°C (88°F)
Dewpoint: 18.0°C (64°F) [RH = 46%]
Pressure (altimeter): 30.12 inches Hg (1020.0 mb)
Winds: from the N (350 degrees) at 10 MPH (9 knots; 4.6 m/s)
Visibility: 6 or more miles (10+ km)
Ceiling: at least 12,000 feet AGL
Clouds: few clouds at 6000 feet AGL
Weather: no significant weather observed at this time

METAR text: ETNL 081220Z 36007KT 9999 SCT060 31/19 Q1020 BLU+
Conditions at: ETNL (LAAGE , DE) observed 1220 UTC 08 August 2020
Temperature: 31.0°C (88°F)
Dewpoint: 19.0°C (66°F) [RH = 49%]
Pressure (altimeter): 30.12 inches Hg (1020.0 mb)
Winds: from the N (360 degrees) at 8 MPH (7 knots; 3.6 m/s)
Visibility: 6 or more miles (10+ km)
Ceiling: at least 12,000 feet AGL
Clouds: scattered clouds at 6000 feet AGL
Weather: no significant weather observed at this time

METAR text: ETNL 081120Z 33004KT 9999 FEW058 31/16 Q1020 BLU+
Conditions at: ETNL (LAAGE , DE) observed 1120 UTC 08 August 2020
Temperature: 31.0°C (88°F)
Dewpoint: 16.0°C (61°F) [RH = 40%]
Pressure (altimeter): 30.12 inches Hg (1020.0 mb)
Winds: from the NNW (330 degrees) at 5 MPH (4 knots; 2.1 m/s)
Visibility: 6 or more miles (10+ km)
Ceiling: at least 12,000 feet AGL
Clouds: few clouds at 5800 feet AGL
Weather: no significant weather observed at this time

METAR text: ETNL 081020Z 25004KT 9999 FEW050 30/17 Q1020 BLU+
Conditions at: ETNL (LAAGE , DE) observed 1020 UTC 08 August 2020
Temperature: 30.0°C (86°F)
Dewpoint: 17.0°C (63°F) [RH = 46%]
Pressure (altimeter): 30.12 inches Hg (1020.0 mb)
Winds: from the WSW (250 degrees) at 5 MPH (4 knots; 2.1 m/s)
Visibility: 6 or more miles (10+ km)
Ceiling: at least 12,000 feet AGL
Clouds: few clouds at 5000 feet AGL
Weather: no significant weather observed at this time

METAR text: ETNL 080920Z 28002KT 9999 FEW280 29/17 Q1020 BLU+
Conditions at: ETNL (LAAGE , DE) observed 0920 UTC 08 August 2020
Temperature: 29.0°C (84°F)
Dewpoint: 17.0°C (63°F) [RH = 48%]
Pressure (altimeter): 30.12 inches Hg (1020.0 mb)
Winds: from the W (280 degrees) at 2 MPH (2 knots; 1.0 m/s)
Visibility: 6 or more miles (10+ km)
Ceiling: at least 12,000 feet AGL
Clouds: few clouds at 28000 feet AGL
Weather: no significant weather observed at this time

METAR text: ETNL 080820Z 34003KT 9999 FEW280 26/17 Q1021 BLU+
Conditions at: ETNL (LAAGE , DE) observed 0820 UTC 08 August 2020
Temperature: 26.0°C (79°F)
Dewpoint: 17.0°C (63°F) [RH = 58%]
Pressure (altimeter): 30.15 inches Hg (1021.0 mb)
Winds: from the NNW (340 degrees) at 3 MPH (3 knots; 1.5 m/s)
Visibility: 6 or more miles (10+ km)
Ceiling: at least 12,000 feet AGL
Clouds: few clouds at 28000 feet AGL
Weather: no significant weather observed at this time

METAR text: ETNL 080720Z 28002KT 9999 FEW280 24/17 Q1021 BLU+
Conditions at: ETNL (LAAGE , DE) observed 0720 UTC 08 August 2020
Temperature: 24.0°C (75°F)
Dewpoint: 17.0°C (63°F) [RH = 65%]
Pressure (altimeter): 30.15 inches Hg (1021.0 mb)
Winds: from the W (280 degrees) at 2 MPH (2 knots; 1.0 m/s)
Visibility: 6 or more miles (10+ km)
Ceiling: at least 12,000 feet AGL
Clouds: few clouds at 28000 feet AGL
Weather: no significant weather observed at this time

METAR text: ETNL 080620Z VRB01KT 9999 FEW060 22/17 Q1021 BLU+
Conditions at: ETNL (LAAGE , DE) observed 0620 UTC 08 August 2020
Temperature: 22.0°C (72°F)
Dewpoint: 17.0°C (63°F) [RH = 73%]
Pressure (altimeter): 30.15 inches Hg (1021.0 mb)
Winds: variable direction winds at 1 MPH (1 knots; 0.5 m/s)
Visibility: 6 or more miles (10+ km)
Ceiling: at least 12,000 feet AGL
Clouds: few clouds at 6000 feet AGL
Weather: no significant weather observed at this time

METAR text: ETNL 080520Z 09002KT 9999 FEW060 19/16 Q1021 BLU+
Conditions at: ETNL (LAAGE , DE) observed 0520 UTC 08 August 2020
Temperature: 19.0°C (66°F)
Dewpoint: 16.0°C (61°F) [RH = 83%]
Pressure (altimeter): 30.15 inches Hg (1021.0 mb)
Winds: from the E (90 degrees) at 2 MPH (2 knots; 1.0 m/s)
Visibility: 6 or more miles (10+ km)
Ceiling: at least 12,000 feet AGL
Clouds: few clouds at 6000 feet AGL
Weather: no significant weather observed at this time

METAR text: ETNL 080420Z 09001KT 9999 FEW060 17/15 Q1020 BLU+
Conditions at: ETNL (LAAGE , DE) observed 0420 UTC 08 August 2020
Temperature: 17.0°C (63°F)
Dewpoint: 15.0°C (59°F) [RH = 88%]
Pressure (altimeter): 30.12 inches Hg (1020.0 mb)
Winds: from the E (90 degrees) at 1 MPH (1 knots; 0.5 m/s)
Visibility: 6 or more miles (10+ km)
Ceiling: at least 12,000 feet AGL
Clouds: few clouds at 6000 feet AGL
Weather: no significant weather observed at this time

METAR text: ETNL 080320Z 09002KT 9999 FEW060 17/15 Q1020 BLU+
Conditions at: ETNL (LAAGE , DE) observed 0320 UTC 08 August 2020
Temperature: 17.0°C (63°F)
Dewpoint: 15.0°C (59°F) [RH = 88%]
Pressure (altimeter): 30.12 inches Hg (1020.0 mb)
Winds: from the E (90 degrees) at 2 MPH (2 knots; 1.0 m/s)
Visibility: 6 or more miles (10+ km)
Ceiling: at least 12,000 feet AGL
Clouds: few clouds at 6000 feet AGL
Weather: no significant weather observed at this time

METAR text: ETNL 080220Z 09004KT 9999 FEW070 18/15 Q1020 BLU+
Conditions at: ETNL (LAAGE , DE) observed 0220 UTC 08 August 2020
Temperature: 18.0°C (64°F)
Dewpoint: 15.0°C (59°F) [RH = 83%]
Pressure (altimeter): 30.12 inches Hg (1020.0 mb)
Winds: from the E (90 degrees) at 5 MPH (4 knots; 2.1 m/s)
Visibility: 6 or more miles (10+ km)
Ceiling: at least 12,000 feet AGL
Clouds: few clouds at 7000 feet AGL
Weather: no significant weather observed at this time

METAR text: ETNL 080120Z 08005KT 9999 FEW070 19/15 Q1020 BLU+
Conditions at: ETNL (LAAGE , DE) observed 0120 UTC 08 August 2020
Temperature: 19.0°C (66°F)
Dewpoint: 15.0°C (59°F) [RH = 78%]
Pressure (altimeter): 30.12 inches Hg (1020.0 mb)
Winds: from the E (80 degrees) at 6 MPH (5 knots; 2.6 m/s)
Visibility: 6 or more miles (10+ km)
Ceiling: at least 12,000 feet AGL
Clouds: few clouds at 7000 feet AGL
Weather: no significant weather observed at this time

METAR text: ETNL 080020Z 07002KT 9999 SCT070 19/15 Q1021 BLU+
Conditions at: ETNL (LAAGE , DE) observed 0020 UTC 08 August 2020
Temperature: 19.0°C (66°F)
Dewpoint: 15.0°C (59°F) [RH = 78%]
Pressure (altimeter): 30.15 inches Hg (1021.0 mb)
Winds: from the ENE (70 degrees) at 2 MPH (2 knots; 1.0 m/s)
Visibility: 6 or more miles (10+ km)
Ceiling: at least 12,000 feet AGL
Clouds: scattered clouds at 7000 feet AGL
Weather: no significant weather observed at this time

METAR text: ETNL 072320Z 06003KT 9999 FEW070 20/15 Q1021 BLU+
Conditions at: ETNL (LAAGE , DE) observed 2320 UTC 07 August 2020
Temperature: 20.0°C (68°F)
Dewpoint: 15.0°C (59°F) [RH = 73%]
Pressure (altimeter): 30.15 inches Hg (1021.0 mb)
Winds: from the ENE (60 degrees) at 3 MPH (3 knots; 1.5 m/s)
Visibility: 6 or more miles (10+ km)
Ceiling: at least 12,000 feet AGL
Clouds: few clouds at 7000 feet AGL
Weather: no significant weather observed at this time

METAR text: ETNL 072220Z 06004KT 9999 FEW070 20/15 Q1021 BLU+
Conditions at: ETNL (LAAGE , DE) observed 2220 UTC 07 August 2020
Temperature: 20.0°C (68°F)
Dewpoint: 15.0°C (59°F) [RH = 73%]
Pressure (altimeter): 30.15 inches Hg (1021.0 mb)
Winds: from the ENE (60 degrees) at 5 MPH (4 knots; 2.1 m/s)
Visibility: 6 or more miles (10+ km)
Ceiling: at least 12,000 feet AGL
Clouds: few clouds at 7000 feet AGL
Weather: no significant weather observed at this time

METAR text: ETNL 072120Z 07005KT 9999 FEW080 SCT340 20/14 Q1021 BLU+
Conditions at: ETNL (LAAGE , DE) observed 2120 UTC 07 August 2020
Temperature: 20.0°C (68°F)
Dewpoint: 14.0°C (57°F) [RH = 68%]
Pressure (altimeter): 30.15 inches Hg (1021.0 mb)
Winds: from the ENE (70 degrees) at 6 MPH (5 knots; 2.6 m/s)
Visibility: 6 or more miles (10+ km)
Ceiling: at least 12,000 feet AGL
Clouds: few clouds at 8000 feet AGL
scattered clouds at 34000 feet AGL
Weather: no significant weather observed at this time

METAR text: ETNL 072020Z 07007KT 9999 FEW310 21/14 Q1021 BLU+
Conditions at: ETNL (LAAGE , DE) observed 2020 UTC 07 August 2020
Temperature: 21.0°C (70°F)
Dewpoint: 14.0°C (57°F) [RH = 64%]
Pressure (altimeter): 30.15 inches Hg (1021.0 mb)
Winds: from the ENE (70 degrees) at 8 MPH (7 knots; 3.6 m/s)
Visibility: 6 or more miles (10+ km)
Ceiling: at least 12,000 feet AGL
Clouds: few clouds at 31000 feet AGL
Weather: no significant weather observed at this time

METAR text: ETNL 071920Z 07009KT 9999 SCT310 22/15 Q1021 BLU+
Conditions at: ETNL (LAAGE , DE) observed 1920 UTC 07 August 2020
Temperature: 22.0°C (72°F)
Dewpoint: 15.0°C (59°F) [RH = 65%]
Pressure (altimeter): 30.15 inches Hg (1021.0 mb)
Winds: from the ENE (70 degrees) at 10 MPH (9 knots; 4.6 m/s)
Visibility: 6 or more miles (10+ km)
Ceiling: at least 12,000 feet AGL
Clouds: scattered clouds at 31000 feet AGL
Weather: no significant weather observed at this time

METAR text: ETNL 071820Z 07010KT 9999 SCT340 24/15 Q1021 BLU+
Conditions at: ETNL (LAAGE , DE) observed 1820 UTC 07 August 2020
Temperature: 24.0°C (75°F)
Dewpoint: 15.0°C (59°F) [RH = 57%]
Pressure (altimeter): 30.15 inches Hg (1021.0 mb)
Winds: from the ENE (70 degrees) at 12 MPH (10 knots; 5.1 m/s)
Visibility: 6 or more miles (10+ km)
Ceiling: at least 12,000 feet AGL
Clouds: scattered clouds at 34000 feet AGL
Weather: no significant weather observed at this time

METAR text: ETNL 071720Z 07011KT 9999 FEW060 SCT340 27/15 Q1021 BLU+
Conditions at: ETNL (LAAGE , DE) observed 1720 UTC 07 August 2020
Temperature: 27.0°C (81°F)
Dewpoint: 15.0°C (59°F) [RH = 48%]
Pressure (altimeter): 30.15 inches Hg (1021.0 mb)
Winds: from the ENE (70 degrees) at 13 MPH (11 knots; 5.7 m/s)
Visibility: 6 or more miles (10+ km)
Ceiling: at least 12,000 feet AGL
Clouds: few clouds at 6000 feet AGL
scattered clouds at 34000 feet AGL
Weather: no significant weather observed at this time

METAR text: ETNL 071620Z 07011KT 9999 FEW060 BKN310 29/15 Q1021 BLU+
Conditions at: ETNL (LAAGE , DE) observed 1620 UTC 07 August 2020
Temperature: 29.0°C (84°F)
Dewpoint: 15.0°C (59°F) [RH = 43%]
Pressure (altimeter): 30.15 inches Hg (1021.0 mb)
Winds: from the ENE (70 degrees) at 13 MPH (11 knots; 5.7 m/s)
Visibility: 6 or more miles (10+ km)
Ceiling: 31000 feet AGL
Clouds: few clouds at 6000 feet AGL
broken clouds at 31000 feet AGL
Weather: no significant weather observed at this time

METAR text: ETNL 071520Z 07013KT 9999 FEW060 BKN330 29/16 Q1021 BLU+
Conditions at: ETNL (LAAGE , DE) observed 1520 UTC 07 August 2020
Temperature: 29.0°C (84°F)
Dewpoint: 16.0°C (61°F) [RH = 45%]
Pressure (altimeter): 30.15 inches Hg (1021.0 mb)
Winds: from the ENE (70 degrees) at 15 MPH (13 knots; 6.7 m/s)
Visibility: 6 or more miles (10+ km)
Ceiling: 33000 feet AGL
Clouds: few clouds at 6000 feet AGL
broken clouds at 33000 feet AGL
Weather: no significant weather observed at this time

METAR text: ETNL 071420Z 13005KT 9999 FEW060 SCT330 31/15 Q1021 BLU+
Conditions at: ETNL (LAAGE , DE) observed 1420 UTC 07 August 2020
Temperature: 31.0°C (88°F)
Dewpoint: 15.0°C (59°F) [RH = 38%]
Pressure (altimeter): 30.15 inches Hg (1021.0 mb)
Winds: from the SE (130 degrees) at 6 MPH (5 knots; 2.6 m/s)
Visibility: 6 or more miles (10+ km)
Ceiling: at least 12,000 feet AGL
Clouds: few clouds at 6000 feet AGL
scattered clouds at 33000 feet AGL
Weather: no significant weather observed at this time

METAR text: ETNL 071320Z 09006KT 9999 FEW060 SCT330 30/14 Q1022 BLU+
Conditions at: ETNL (LAAGE , DE) observed 1320 UTC 07 August 2020
Temperature: 30.0°C (86°F)
Dewpoint: 14.0°C (57°F) [RH = 38%]
Pressure (altimeter): 30.18 inches Hg (1022.0 mb)
Winds: from the E (90 degrees) at 7 MPH (6 knots; 3.1 m/s)
Visibility: 6 or more miles (10+ km)
Ceiling: at least 12,000 feet AGL
Clouds: few clouds at 6000 feet AGL
scattered clouds at 33000 feet AGL
Weather: no significant weather observed at this time

METAR text: ETNL 071220Z 14005KT 9999 FEW060 30/14 Q1022 BLU+
Conditions at: ETNL (LAAGE , DE) observed 1220 UTC 07 August 2020
Temperature: 30.0°C (86°F)
Dewpoint: 14.0°C (57°F) [RH = 38%]
Pressure (altimeter): 30.18 inches Hg (1022.0 mb)
Winds: from the SE (140 degrees) at 6 MPH (5 knots; 2.6 m/s)
Visibility: 6 or more miles (10+ km)
Ceiling: at least 12,000 feet AGL
Clouds: few clouds at 6000 feet AGL
Weather: no significant weather observed at this time

METAR text: ETNL 071120Z 12006KT 9999 FEW060 29/14 Q1023 BLU+
Conditions at: ETNL (LAAGE , DE) observed 1120 UTC 07 August 2020
Temperature: 29.0°C (84°F)
Dewpoint: 14.0°C (57°F) [RH = 40%]
Pressure (altimeter): 30.21 inches Hg (1023.0 mb)
Winds: from the ESE (120 degrees) at 7 MPH (6 knots; 3.1 m/s)
Visibility: 6 or more miles (10+ km)
Ceiling: at least 12,000 feet AGL
Clouds: few clouds at 6000 feet AGL
Weather: no significant weather observed at this time

METAR text: ETNL 071020Z 12008KT 9999 FEW060 29/13 Q1023 BLU+FCST CNL
Conditions at: ETNL (LAAGE , DE) observed 1020 UTC 07 August 2020
Temperature: 29.0°C (84°F)
Dewpoint: 13.0°C (55°F) [RH = 37%]
Pressure (altimeter): 30.21 inches Hg (1023.0 mb)
Winds: from the ESE (120 degrees) at 9 MPH (8 knots; 4.1 m/s)
Visibility: 6 or more miles (10+ km)
Ceiling: at least 12,000 feet AGL
Clouds: few clouds at 6000 feet AGL
Weather: no significant weather observed at this time

Forecast for: ETNL (LAAGE , DE)
Text: TAF ETNL 081700Z 0817/0905 03008KT 9999 NSW FEW250 BY ETGL
Forecast period: 1700 UTC 08 August 2020 to 0500 UTC 09 August 2020
Forecast type: FROM: standard forecast or significant change
Winds: from the NNE (30 degrees) at 9 MPH (8 knots; 4.1 m/s)
Visibility: 6 or more miles (10+ km)
Ceiling: at least 12,000 feet AGL
Clouds: few clouds at 25000 feet AGL
Weather: NSW  (no significant weather)